03:08
Airports
History
Links
Donate
Help keep this website running!
PayPal
Bitcoin
This page is community maintained. The information is intended for PC simulator navigation or reference.
Always use approved charts for navigation.
SNJC
Fazenda Agua Boa
Fazenda Agua Boa (SNJC)
Ribamar Fiquene, Maranhao, Brazil (65938)
4
Lat/Lng:5° 57' 40" S / 47° 23' 32" W
-5.961111 / -47.392222
Elevation:495'ft / 151mMSL
ID / ICAO:SNJC
Runways:1
Longest:09-27
Gravel 1,030m / 3,379ft
Nearby Weather21:00 GMT 2017-09-20
Nearby weather at SBIZ, Prefeito Renato Moreira located 30.1 nautical miles from SNJC
Altimeter: 29.80
Visibility: 6.2 statute miles
Wind: 5 knots (from 090°)
Temp: 37°c / 99°f
Humidity: 39.6%

METAR: SBIZ 202100Z 09005KT 9999 SCT020 37/21 Q1009

(Powered by phpweather)
Runway 09 / 27
Dimensions:1030 x 27.1m 3379' x 89'ft
Surface:Gravel
Runway 09 [A]Runway 27 [B]
Heading:069°TH 249°TH
Lat:
Lng:
5° 57' 45.93"S
47° 23' 47.69"W
5° 57' 34.07"S
47° 23' 16.31"W
User Notes and Comments
5° 57' 40" S / 47° 23' 32" W
Distance To
Airport ID:
Nearby Airports
4 Comandante Carlos Inacio Agnes 26.6 NM
SIME N 355°
4 Haras Bela Vista 30.0 NM
SJVY NNW 345°
(U) Prefeito Renato Moreira 30.1 NM
SBIZ ( WX ) N 351°
(U) ARAGUATINS 53.3 NM
SJGU WNW 291°
(C) Araguatins 54.7 NM
SWAI WNW 297°
4 Frisama Acailandia 70.3 NM
SJHX N 355°
4 Fazenda Santa Monica 71.5 NM
SNVQ WSW 237°
VFR Chart
Flight Planning at SkyVector.com